PWSweather.com
Personal Weather Stations
Station Observations
WILS01
Leuven, WilseleBE 3012

LeuvenWilseleBE 3012

Lat: 50.89518, Lon: 4.69741

Elevation: 120

Station Type: DAVIS VP2

Latest ConditionsUpdated 2:41:13 PM GMT+01:01 Wednesday, Aug 24, 2016
Currently Today's Max Today's Min Today's Average
Temperature 93.7°F34.3°C 93.7°F34.3°C 63.5°F17.5°C 74.2°F23.4°C
Dew Point 62.1°F16.7°C 68.0°F20.0°C 57.9°F14.4°C 62.3°F16.8°C
Winds 0.9 mph NE1.4 kmh NE 2.0 mph WSW3.2 kmh WSW - 0.4 mph 0.6 kmh
Wind Gusts 1.3 mph2.1 kmh 2.0 mph3.2 kmh - -
Humidity 35% 86% 35% 69%
Pressure 30.08 in1018.6 mb 30.17 in1021.7 mb 30.08 in1018.6 mb -
Hour Temp Dew Point Humidity Winds Wind Gusts Pressure Precip Precip Rate Daily Precip Total
02:41 PM 93.7°F34.3°C 62.1°F16.7°C 35% 0.9 mph NE1.4 kmh NE 1.3 mph2.1 kmh 30.08 in1018.6 mb - 0.00 in0.0 mm 0.00 in0.0 mm
02:30 PM 93.4°F34.1°C 63.1°F17.3°C 37% 1.8 mph NE2.9 kmh NE 0.9 mph1.4 kmh 30.09 in1019.0 mb - 0.00 in0.0 mm 0.00 in0.0 mm
02:20 PM 93.6°F34.2°C 63.1°F17.3°C 36% 0.9 mph ESE1.4 kmh ESE 2.0 mph3.2 kmh 30.09 in1019.0 mb - 0.00 in0.0 mm 0.00 in0.0 mm
02:10 PM 93.2°F34.0°C 63.1°F17.3°C 37% 0.9 mph SW1.4 kmh SW 0.7 mph1.1 kmh 30.09 in1019.0 mb - 0.00 in0.0 mm 0.00 in0.0 mm
02:00 PM 93.6°F34.2°C 63.5°F17.5°C 37% 0.9 mph SW1.4 kmh SW 1.3 mph2.1 kmh 30.09 in1019.0 mb - 0.00 in0.0 mm 0.00 in0.0 mm
01:49 PM 93.2°F34.0°C 64.6°F18.1°C 39% 0.9 mph SE1.4 kmh SE 0.9 mph1.4 kmh 30.09 in1019.0 mb - 0.00 in0.0 mm 0.00 in0.0 mm
01:39 PM 92.8°F33.8°C 65.7°F18.7°C 41% 0.9 mph SE1.4 kmh SE 1.1 mph1.8 kmh 30.09 in1019.0 mb - 0.00 in0.0 mm 0.00 in0.0 mm
01:28 PM 92.5°F33.6°C 64.8°F18.2°C 40% 0.9 mph E1.4 kmh E 1.3 mph2.1 kmh 30.10 in1019.3 mb - 0.00 in0.0 mm 0.00 in0.0 mm
01:18 PM 92.1°F33.4°C 65.1°F18.4°C 41% 0.9 mph SE1.4 kmh SE 0.7 mph1.1 kmh 30.10 in1019.3 mb - 0.00 in0.0 mm 0.00 in0.0 mm
01:08 PM 91.8°F33.2°C 64.9°F18.3°C 41% 0.9 mph SSW1.4 kmh SSW 1.3 mph2.1 kmh 30.10 in1019.3 mb - 0.00 in0.0 mm 0.00 in0.0 mm
12:58 PM 91.4°F33.0°C 66.7°F19.3°C 44% 0.9 mph SSW1.4 kmh SSW 1.8 mph2.9 kmh 30.11 in1019.6 mb - 0.00 in0.0 mm 0.00 in0.0 mm
12:47 PM 90.9°F32.7°C 67.3°F19.6°C 46% 0.9 mph SW1.4 kmh SW 0.9 mph1.4 kmh 30.11 in1019.6 mb - 0.00 in0.0 mm 0.00 in0.0 mm
12:37 PM 90.5°F32.5°C 66.4°F19.1°C 45% 0.9 mph SW1.4 kmh SW 1.6 mph2.6 kmh 30.11 in1019.6 mb - 0.00 in0.0 mm 0.00 in0.0 mm
12:27 PM 90.0°F32.2°C 66.6°F19.2°C 46% 2.0 mph S3.2 kmh S 1.1 mph1.8 kmh 30.11 in1019.6 mb - 0.00 in0.0 mm 0.00 in0.0 mm
12:17 PM 89.8°F32.1°C 66.2°F19.0°C 46% 1.1 mph SW1.8 kmh SW 1.8 mph2.9 kmh 30.12 in1020.0 mb - 0.00 in0.0 mm 0.00 in0.0 mm
12:06 PM 89.8°F32.1°C 68.0°F20.0°C 49% 0.4 mph W0.6 kmh W 0.4 mph0.6 kmh 30.12 in1020.0 mb - 0.00 in0.0 mm 0.00 in0.0 mm
11:56 AM 89.1°F31.7°C 67.3°F19.6°C 49% 0.9 mph W1.4 kmh W 1.1 mph1.8 kmh 30.12 in1020.0 mb - 0.00 in0.0 mm 0.00 in0.0 mm
11:46 AM 88.2°F31.2°C 66.6°F19.2°C 49% 0.9 mph SW1.4 kmh SW 0.9 mph1.4 kmh 30.12 in1020.0 mb - 0.00 in0.0 mm 0.00 in0.0 mm
11:35 AM 88.0°F31.1°C 67.1°F19.5°C 50% 0.9 mph SW1.4 kmh SW 1.6 mph2.6 kmh 30.12 in1020.0 mb - 0.00 in0.0 mm 0.00 in0.0 mm
11:25 AM 87.3°F30.7°C 67.1°F19.5°C 51% 1.1 mph SW1.8 kmh SW 1.3 mph2.1 kmh 30.12 in1020.0 mb - 0.00 in0.0 mm 0.00 in0.0 mm
11:15 AM 86.7°F30.4°C 66.9°F19.4°C 52% 1.6 mph S2.6 kmh S 1.3 mph2.1 kmh 30.12 in1020.0 mb - 0.00 in0.0 mm 0.00 in0.0 mm
11:05 AM 86.0°F30.0°C 67.3°F19.6°C 53% 1.1 mph SW1.8 kmh SW 1.6 mph2.6 kmh 30.12 in1020.0 mb - 0.00 in0.0 mm 0.00 in0.0 mm
10:54 AM 85.6°F29.8°C 67.3°F19.6°C 54% 0.9 mph SW1.4 kmh SW 1.6 mph2.6 kmh 30.13 in1020.3 mb - 0.00 in0.0 mm 0.00 in0.0 mm
10:44 AM 84.7°F29.3°C 67.3°F19.6°C 56% 0.9 mph S1.4 kmh S 1.1 mph1.8 kmh 30.13 in1020.3 mb - 0.00 in0.0 mm 0.00 in0.0 mm
10:34 AM 84.0°F28.9°C 67.1°F19.5°C 57% 0.9 mph SW1.4 kmh SW 0.7 mph1.1 kmh 30.13 in1020.3 mb - 0.00 in0.0 mm 0.00 in0.0 mm
10:23 AM 83.3°F28.5°C 66.9°F19.4°C 57% 0.9 mph SSE1.4 kmh SSE 0.7 mph1.1 kmh 30.14 in1020.7 mb - 0.00 in0.0 mm 0.00 in0.0 mm
10:13 AM 82.8°F28.2°C 67.3°F19.6°C 59% 0.9 mph SW1.4 kmh SW 1.6 mph2.6 kmh 30.14 in1020.7 mb - 0.00 in0.0 mm 0.00 in0.0 mm
10:03 AM 81.7°F27.6°C 66.4°F19.1°C 60% 2.0 mph WSW3.2 kmh WSW 1.3 mph2.1 kmh 30.14 in1020.7 mb - 0.00 in0.0 mm 0.00 in0.0 mm
09:53 AM 80.8°F27.1°C 66.9°F19.4°C 62% 0.9 mph SSE1.4 kmh SSE 1.1 mph1.8 kmh 30.14 in1020.7 mb - 0.00 in0.0 mm 0.00 in0.0 mm
09:42 AM 79.5°F26.4°C 66.6°F19.2°C 64% 0.9 mph SSW1.4 kmh SSW 0.7 mph1.1 kmh 30.14 in1020.7 mb - 0.00 in0.0 mm 0.00 in0.0 mm
09:32 AM 78.1°F25.6°C 66.4°F19.1°C 67% 0.9 mph SSE1.4 kmh SSE 0.7 mph1.1 kmh 30.14 in1020.7 mb - 0.00 in0.0 mm 0.00 in0.0 mm
09:22 AM 77.0°F25.0°C 65.7°F18.7°C 68% Calm Calm 1.6 mph2.6 kmh 30.14 in1020.7 mb - 0.00 in0.0 mm 0.00 in0.0 mm
09:12 AM 75.7°F24.3°C 65.1°F18.4°C 69% 0.9 mph ENE1.4 kmh ENE 1.1 mph1.8 kmh 30.14 in1020.7 mb - 0.00 in0.0 mm 0.00 in0.0 mm
09:02 AM 74.5°F23.6°C 64.4°F18.0°C 71% 0.9 mph SSE1.4 kmh SSE 0.9 mph1.4 kmh 30.14 in1020.7 mb - 0.00 in0.0 mm 0.00 in0.0 mm
08:51 AM 73.6°F23.1°C 63.9°F17.7°C 71% 0.9 mph S1.4 kmh S 1.3 mph2.1 kmh 30.14 in1020.7 mb - 0.00 in0.0 mm 0.00 in0.0 mm
08:41 AM 72.3°F22.4°C 63.5°F17.5°C 74% 0.2 mph SE0.3 kmh SE 0.7 mph1.1 kmh 30.14 in1020.7 mb - 0.00 in0.0 mm 0.00 in0.0 mm
08:31 AM 70.9°F21.6°C 62.8°F17.1°C 75% Calm Calm 1.8 mph2.9 kmh 30.14 in1020.7 mb - 0.00 in0.0 mm 0.00 in0.0 mm
08:20 AM 69.6°F20.9°C 61.9°F16.6°C 76% 0.4 mph SSE0.6 kmh SSE 0.7 mph1.1 kmh 30.14 in1020.7 mb - 0.00 in0.0 mm 0.00 in0.0 mm
08:10 AM 68.4°F20.2°C 61.2°F16.2°C 78% 0.9 mph S1.4 kmh S 0.4 mph0.6 kmh 30.15 in1021.0 mb - 0.00 in0.0 mm 0.00 in0.0 mm
08:00 AM 67.1°F19.5°C 60.8°F16.0°C 79% 0.4 mph S0.6 kmh S 1.1 mph1.8 kmh 30.15 in1021.0 mb - 0.00 in0.0 mm 0.00 in0.0 mm
07:50 AM 66.2°F19.0°C 59.9°F15.5°C 80% Calm Calm 0.2 mph0.3 kmh 30.15 in1021.0 mb - 0.00 in0.0 mm 0.00 in0.0 mm
07:39 AM 65.5°F18.6°C 59.5°F15.3°C 81% 0.9 mph S1.4 kmh S 0.4 mph0.6 kmh 30.15 in1021.0 mb - 0.00 in0.0 mm 0.00 in0.0 mm
07:29 AM 64.9°F18.3°C 59.4°F15.2°C 82% 0.9 mph S1.4 kmh S 1.1 mph1.8 kmh 30.15 in1021.0 mb - 0.00 in0.0 mm 0.00 in0.0 mm
07:19 AM 64.6°F18.1°C 59.0°F15.0°C 82% Calm Calm 0.7 mph1.1 kmh 30.15 in1021.0 mb - 0.00 in0.0 mm 0.00 in0.0 mm
07:08 AM 64.0°F17.8°C 58.8°F14.9°C 83% Calm Calm 0.7 mph1.1 kmh 30.15 in1021.0 mb - 0.00 in0.0 mm 0.00 in0.0 mm
06:58 AM 63.9°F17.7°C 58.6°F14.8°C 83% Calm Calm -- 30.14 in1020.7 mb - 0.00 in0.0 mm 0.00 in0.0 mm
06:48 AM 63.7°F17.6°C 58.5°F14.7°C 83% Calm Calm 0.2 mph0.3 kmh 30.14 in1020.7 mb - 0.00 in0.0 mm 0.00 in0.0 mm
06:38 AM 63.5°F17.5°C 57.9°F14.4°C 82% Calm Calm -- 30.14 in1020.7 mb - 0.00 in0.0 mm 0.00 in0.0 mm
06:27 AM 63.7°F17.6°C 58.1°F14.5°C 82% Calm Calm 0.2 mph0.3 kmh 30.14 in1020.7 mb - 0.00 in0.0 mm 0.00 in0.0 mm
06:17 AM 63.7°F17.6°C 58.1°F14.5°C 82% Calm Calm 0.9 mph1.4 kmh 30.14 in1020.7 mb - 0.00 in0.0 mm 0.00 in0.0 mm
06:07 AM 63.7°F17.6°C 58.1°F14.5°C 82% Calm Calm 0.2 mph0.3 kmh 30.14 in1020.7 mb - 0.00 in0.0 mm 0.00 in0.0 mm
05:56 AM 63.9°F17.7°C 58.1°F14.5°C 81% Calm Calm -- 30.14 in1020.7 mb - 0.00 in0.0 mm 0.00 in0.0 mm
05:44 AM 63.9°F17.7°C 57.9°F14.4°C 81% Calm Calm 0.7 mph1.1 kmh 30.13 in1020.3 mb - 0.00 in0.0 mm 0.00 in0.0 mm
05:34 AM 64.0°F17.8°C 58.1°F14.5°C 81% Calm Calm 0.2 mph0.3 kmh 30.14 in1020.7 mb - 0.00 in0.0 mm 0.00 in0.0 mm
05:23 AM 64.0°F17.8°C 58.1°F14.5°C 81% Calm Calm 0.7 mph1.1 kmh 30.13 in1020.3 mb - 0.00 in0.0 mm 0.00 in0.0 mm
05:13 AM 64.0°F17.8°C 58.1°F14.5°C 81% Calm Calm 0.7 mph1.1 kmh 30.13 in1020.3 mb - 0.00 in0.0 mm 0.00 in0.0 mm
05:03 AM 64.2°F17.9°C 58.3°F14.6°C 81% Calm Calm 0.4 mph0.6 kmh 30.13 in1020.3 mb - 0.00 in0.0 mm 0.00 in0.0 mm
04:53 AM 64.2°F17.9°C 58.3°F14.6°C 81% Calm Calm 0.9 mph1.4 kmh 30.13 in1020.3 mb - 0.00 in0.0 mm 0.00 in0.0 mm
04:42 AM 64.4°F18.0°C 58.5°F14.7°C 81% Calm Calm 0.7 mph1.1 kmh 30.13 in1020.3 mb - 0.00 in0.0 mm 0.00 in0.0 mm
04:32 AM 64.6°F18.1°C 58.6°F14.8°C 81% Calm Calm 0.4 mph0.6 kmh 30.13 in1020.3 mb - 0.00 in0.0 mm 0.00 in0.0 mm
04:22 AM 64.6°F18.1°C 58.6°F14.8°C 81% Calm Calm 0.2 mph0.3 kmh 30.13 in1020.3 mb - 0.00 in0.0 mm 0.00 in0.0 mm
04:11 AM 64.6°F18.1°C 58.6°F14.8°C 81% Calm Calm 0.2 mph0.3 kmh 30.13 in1020.3 mb - 0.00 in0.0 mm 0.00 in0.0 mm
04:01 AM 64.4°F18.0°C 58.8°F14.9°C 82% Calm Calm 0.4 mph0.6 kmh 30.14 in1020.7 mb - 0.00 in0.0 mm 0.00 in0.0 mm
03:51 AM 64.6°F18.1°C 59.0°F15.0°C 82% Calm Calm 0.4 mph0.6 kmh 30.14 in1020.7 mb - 0.00 in0.0 mm 0.00 in0.0 mm
03:41 AM 64.6°F18.1°C 58.8°F14.9°C 81% Calm Calm 0.4 mph0.6 kmh 30.14 in1020.7 mb - 0.00 in0.0 mm 0.00 in0.0 mm
03:30 AM 64.8°F18.2°C 59.2°F15.1°C 82% Calm Calm 0.4 mph0.6 kmh 30.14 in1020.7 mb - 0.00 in0.0 mm 0.00 in0.0 mm
03:20 AM 64.8°F18.2°C 59.2°F15.1°C 82% Calm Calm 0.4 mph0.6 kmh 30.14 in1020.7 mb - 0.00 in0.0 mm 0.00 in0.0 mm
03:10 AM 64.8°F18.2°C 59.2°F15.1°C 82% Calm Calm 0.2 mph0.3 kmh 30.15 in1021.0 mb - 0.00 in0.0 mm 0.00 in0.0 mm
02:59 AM 64.9°F18.3°C 59.4°F15.2°C 82% Calm Calm 0.2 mph0.3 kmh 30.15 in1021.0 mb - 0.00 in0.0 mm 0.00 in0.0 mm
02:49 AM 64.9°F18.3°C 59.7°F15.4°C 83% Calm Calm 0.2 mph0.3 kmh 30.15 in1021.0 mb - 0.00 in0.0 mm 0.00 in0.0 mm
02:38 AM 64.8°F18.2°C 59.5°F15.3°C 83% Calm Calm 0.2 mph0.3 kmh 30.15 in1021.0 mb - 0.00 in0.0 mm 0.00 in0.0 mm
02:28 AM 64.9°F18.3°C 59.9°F15.5°C 84% Calm Calm 0.4 mph0.6 kmh 30.15 in1021.0 mb - 0.00 in0.0 mm 0.00 in0.0 mm
02:18 AM 65.1°F18.4°C 60.1°F15.6°C 84% Calm Calm -- 30.15 in1021.0 mb - 0.00 in0.0 mm 0.00 in0.0 mm
02:08 AM 65.5°F18.6°C 60.8°F16.0°C 85% Calm Calm -- 30.15 in1021.0 mb - 0.00 in0.0 mm 0.00 in0.0 mm
01:57 AM 65.7°F18.7°C 61.0°F16.1°C 85% Calm Calm 0.2 mph0.3 kmh 30.15 in1021.0 mb - 0.00 in0.0 mm 0.00 in0.0 mm
01:47 AM 65.8°F18.8°C 61.2°F16.2°C 85% Calm Calm -- 30.15 in1021.0 mb - 0.00 in0.0 mm 0.00 in0.0 mm
01:37 AM 66.0°F18.9°C 61.7°F16.5°C 86% Calm Calm -- 30.16 in1021.3 mb - 0.00 in0.0 mm 0.00 in0.0 mm
01:26 AM 66.4°F19.1°C 61.9°F16.6°C 85% Calm Calm -- 30.16 in1021.3 mb - 0.00 in0.0 mm 0.00 in0.0 mm
01:16 AM 66.4°F19.1°C 61.7°F16.5°C 85% Calm Calm -- 30.16 in1021.3 mb - 0.00 in0.0 mm 0.00 in0.0 mm
01:06 AM 66.6°F19.2°C 61.9°F16.6°C 85% Calm Calm -- 30.16 in1021.3 mb - 0.00 in0.0 mm 0.00 in0.0 mm
12:56 AM 66.7°F19.3°C 61.9°F16.6°C 84% Calm Calm -- 30.16 in1021.3 mb - 0.00 in0.0 mm 0.00 in0.0 mm
12:46 AM 66.9°F19.4°C 61.9°F16.6°C 84% Calm Calm -- 30.17 in1021.7 mb - 0.00 in0.0 mm 0.00 in0.0 mm
12:36 AM 66.9°F19.4°C 61.5°F16.4°C 83% Calm Calm -- 30.17 in1021.7 mb - 0.00 in0.0 mm 0.00 in0.0 mm
12:25 AM 67.3°F19.6°C 61.9°F16.6°C 83% Calm Calm -- 30.17 in1021.7 mb - 0.00 in0.0 mm 0.00 in0.0 mm
12:15 AM 67.5°F19.7°C 62.4°F16.9°C 84% Calm Calm -- 30.17 in1021.7 mb - 0.00 in0.0 mm 0.00 in0.0 mm
12:05 AM 67.6°F19.8°C 62.2°F16.8°C 83% Calm Calm -- 30.17 in1021.7 mb - 0.00 in0.0 mm 0.00 in0.0 mm